createdAt,value
2019-03-01T00:00:51.836Z,973.38
2019-03-01T00:01:51.884Z,973.43
2019-03-01T00:02:51.911Z,973.41
2019-03-01T00:03:51.956Z,973.44
2019-03-01T00:04:52.002Z,973.38
2019-03-01T00:05:52.141Z,973.38
2019-03-01T00:06:52.103Z,973.37
2019-03-01T00:07:52.144Z,973.37
2019-03-01T00:08:52.191Z,973.36
2019-03-01T00:09:52.239Z,973.35
2019-03-01T00:10:52.316Z,973.34
2019-03-01T00:11:52.328Z,973.31
2019-03-01T00:12:52.427Z,973.33
2019-03-01T00:13:52.421Z,973.29
2019-03-01T00:14:52.474Z,973.29
2019-03-01T00:15:52.535Z,973.32
2019-03-01T00:16:52.558Z,973.23
2019-03-01T00:17:52.634Z,973.24
2019-03-01T00:18:52.661Z,973.18
2019-03-01T00:19:52.700Z,973.15
2019-03-01T00:20:52.747Z,973.14
2019-03-01T00:21:52.829Z,973.13
2019-03-01T00:22:52.845Z,973.11
2019-03-01T00:23:52.883Z,973.08
2019-03-01T00:24:52.942Z,973.06
2019-03-01T00:25:52.981Z,973.04
2019-03-01T00:26:53.085Z,973.07
2019-03-01T00:27:53.085Z,973.02
2019-03-01T00:28:53.128Z,973.04
2019-03-01T00:29:53.173Z,973.06
2019-03-01T00:30:53.206Z,973.06
2019-03-01T00:31:53.253Z,973.06
2019-03-01T00:32:53.326Z,973.04
2019-03-01T00:33:53.347Z,973.03
2019-03-01T00:34:53.402Z,973.06
2019-03-01T00:35:53.454Z,973.05
2019-03-01T00:36:53.502Z,973.02
2019-03-01T00:37:53.558Z,973.02
2019-03-01T00:38:53.585Z,972.97
2019-03-01T00:39:53.626Z,972.99
2019-03-01T00:40:53.671Z,972.92
2019-03-01T00:41:53.728Z,972.96
2019-03-01T00:42:53.786Z,972.94
2019-03-01T00:43:53.810Z,972.95
2019-03-01T00:44:53.857Z,972.92
2019-03-01T00:45:53.903Z,972.92
2019-03-01T00:46:53.948Z,972.93
2019-03-01T00:47:54.025Z,972.85
2019-03-01T00:48:54.039Z,972.90
2019-03-01T00:49:54.086Z,972.90
2019-03-01T00:50:54.132Z,972.86
2019-03-01T00:51:54.177Z,972.90
2019-03-01T00:52:54.251Z,972.91
2019-03-01T00:53:54.401Z,972.91
2019-03-01T00:54:54.317Z,972.91
2019-03-01T00:55:54.366Z,972.87
2019-03-01T00:56:54.409Z,972.87
2019-03-01T00:57:54.485Z,972.86
2019-03-01T00:58:54.523Z,972.86
2019-03-01T00:59:54.549Z,972.80
2019-03-01T01:00:54.665Z,972.77
2019-03-01T01:01:54.646Z,972.79
2019-03-01T01:02:54.688Z,972.76
2019-03-01T01:03:54.756Z,972.75
2019-03-01T01:04:54.780Z,972.79
2019-03-01T01:05:54.825Z,972.77
2019-03-01T01:06:54.870Z,972.81
2019-03-01T01:07:54.924Z,972.82
2019-03-01T01:08:54.990Z,972.79
2019-03-01T01:09:55.015Z,972.77
2019-03-01T01:10:55.054Z,972.75
2019-03-01T01:11:55.122Z,972.73
2019-03-01T01:12:55.149Z,972.72
2019-03-01T01:13:55.216Z,972.70
2019-03-01T01:14:55.263Z,972.68
2019-03-01T01:15:55.291Z,972.65
2019-03-01T01:16:55.339Z,972.62
2019-03-01T01:17:55.383Z,972.59
2019-03-01T01:18:55.449Z,972.56
2019-03-01T01:19:55.479Z,972.54
2019-03-01T01:20:55.521Z,972.50
2019-03-01T01:21:55.565Z,972.47
2019-03-01T01:22:55.617Z,972.47
2019-03-01T01:23:55.692Z,972.48
2019-03-01T01:24:55.704Z,972.50
2019-03-01T01:25:55.752Z,972.41
2019-03-01T01:26:55.795Z,972.38
2019-03-01T01:27:55.867Z,972.42
2019-03-01T01:28:55.911Z,972.35
2019-03-01T01:29:55.954Z,972.35
2019-03-01T01:30:55.994Z,972.30
2019-03-01T01:31:56.032Z,972.29
2019-03-01T01:32:56.107Z,972.23
2019-03-01T01:33:56.123Z,972.27
2019-03-01T01:34:56.214Z,972.24
2019-03-01T01:35:56.215Z,972.23
2019-03-01T01:36:56.261Z,972.24
2019-03-01T01:37:56.305Z,972.21
2019-03-01T01:38:56.351Z,972.20
2019-03-01T01:39:56.440Z,972.18
2019-03-01T01:40:56.446Z,972.17
2019-03-01T01:41:56.487Z,972.18
2019-03-01T01:42:56.534Z,972.18
2019-03-01T01:43:56.583Z,972.21
2019-03-01T01:44:56.672Z,972.10
2019-03-01T01:45:56.704Z,972.15
2019-03-01T01:46:56.725Z,972.14
2019-03-01T01:47:56.768Z,972.13
2019-03-01T01:48:56.815Z,972.18
2019-03-01T01:49:56.907Z,972.14
2019-03-01T01:50:56.909Z,972.09
2019-03-01T01:51:56.952Z,972.14
2019-03-01T01:52:56.997Z,972.16
2019-03-01T01:53:57.042Z,972.13
2019-03-01T01:54:57.113Z,972.12
2019-03-01T01:55:57.137Z,972.13
2019-03-01T01:56:57.181Z,972.14
2019-03-01T01:57:57.230Z,972.11
2019-03-01T01:58:57.275Z,972.08
2019-03-01T01:59:57.363Z,972.03
2019-03-01T02:00:57.366Z,972.01
2019-03-01T02:01:57.422Z,972.06
2019-03-01T02:02:57.457Z,972.00
2019-03-01T02:03:57.516Z,972.00
2019-03-01T02:04:57.570Z,971.97
2019-03-01T02:05:57.617Z,971.96
2019-03-01T02:06:57.644Z,971.96
2019-03-01T02:07:57.687Z,971.99
2019-03-01T02:08:57.738Z,971.95
2019-03-01T02:09:57.791Z,971.93
2019-03-01T02:10:57.856Z,971.88
2019-03-01T02:11:57.878Z,971.89
2019-03-01T02:12:57.922Z,971.83
2019-03-01T02:13:57.996Z,971.82
2019-03-01T02:14:58.019Z,971.85
2019-03-01T02:15:58.096Z,971.83
2019-03-01T02:16:58.111Z,971.82
2019-03-01T02:17:58.152Z,971.84
2019-03-01T02:18:58.199Z,971.89
2019-03-01T02:19:58.248Z,971.86
2019-03-01T02:20:58.320Z,971.81
2019-03-01T02:21:58.340Z,971.80
2019-03-01T02:22:58.386Z,971.78
2019-03-01T02:23:58.429Z,971.77
2019-03-01T02:24:58.479Z,971.76
2019-03-01T02:25:58.546Z,971.73
2019-03-01T02:26:58.569Z,971.73
2019-03-01T02:27:58.620Z,971.73
2019-03-01T02:28:58.660Z,971.71
2019-03-01T02:29:58.708Z,971.72
2019-03-01T02:30:58.779Z,971.68
2019-03-01T02:31:58.852Z,971.68
2019-03-01T02:32:58.846Z,971.63
2019-03-01T02:33:58.913Z,971.60
2019-03-01T02:34:59.051Z,971.55
2019-03-01T02:35:59.003Z,971.61
2019-03-01T02:36:59.049Z,971.58
2019-03-01T02:37:59.085Z,971.55
2019-03-01T02:38:59.122Z,971.58
2019-03-01T02:39:59.165Z,971.53
2019-03-01T02:40:59.212Z,971.55
2019-03-01T02:41:59.278Z,971.55
2019-03-01T02:42:59.310Z,971.56
2019-03-01T02:43:59.350Z,971.54
2019-03-01T02:44:59.408Z,971.49
2019-03-01T02:45:59.445Z,971.47
2019-03-01T02:46:59.533Z,971.45
2019-03-01T02:47:59.539Z,971.43
2019-03-01T02:48:59.597Z,971.50
2019-03-01T02:49:59.628Z,971.41
2019-03-01T02:50:59.674Z,971.43
2019-03-01T02:51:59.755Z,971.43
2019-03-01T02:52:59.767Z,971.40
2019-03-01T02:53:59.819Z,971.37
2019-03-01T02:54:59.858Z,971.41
2019-03-01T02:55:59.907Z,971.37
2019-03-01T02:56:59.989Z,971.39
2019-03-01T02:58:00.082Z,971.33
2019-03-01T02:59:00.054Z,971.37
2019-03-01T03:00:00.262Z,971.34
2019-03-01T03:01:00.142Z,971.34
2019-03-01T03:02:00.213Z,971.33
2019-03-01T03:03:00.255Z,971.25
2019-03-01T03:04:00.274Z,971.28
2019-03-01T03:05:00.517Z,971.23
2019-03-01T03:06:00.379Z,971.20
2019-03-01T03:07:00.413Z,971.20
2019-03-01T03:08:00.480Z,971.23
2019-03-01T03:09:00.522Z,971.22
2019-03-01T03:10:00.565Z,971.17
2019-03-01T03:11:00.613Z,971.20
2019-03-01T03:12:00.653Z,971.13
2019-03-01T03:13:00.712Z,971.13
2019-03-01T03:14:00.742Z,971.16
2019-03-01T03:15:00.779Z,971.11
2019-03-01T03:16:00.841Z,971.08
2019-03-01T03:17:00.922Z,971.04
2019-03-01T03:18:00.957Z,971.03
2019-03-01T03:19:00.967Z,970.96
2019-03-01T03:20:01.019Z,970.99
2019-03-01T03:21:01.061Z,970.95
2019-03-01T03:22:01.114Z,970.92
2019-03-01T03:23:01.168Z,970.98
2019-03-01T03:24:01.218Z,970.95
2019-03-01T03:25:01.309Z,970.90
2019-03-01T03:26:01.318Z,970.95
2019-03-01T03:27:01.337Z,970.95
2019-03-01T03:28:01.393Z,970.97
2019-03-01T03:29:01.449Z,970.90
2019-03-01T03:30:01.482Z,970.93
2019-03-01T03:31:01.540Z,970.93
2019-03-01T03:32:01.569Z,970.88
2019-03-01T03:33:01.620Z,970.92
2019-03-01T03:34:01.686Z,970.92
2019-03-01T03:35:01.780Z,970.82
2019-03-01T03:36:01.760Z,970.81
2019-03-01T03:37:01.817Z,970.82
2019-03-01T03:38:01.852Z,970.82
2019-03-01T03:39:01.916Z,970.83
2019-03-01T03:40:01.939Z,970.85
2019-03-01T03:41:01.991Z,970.79
2019-03-01T03:42:02.038Z,970.80
2019-03-01T03:43:02.075Z,970.85
2019-03-01T03:44:02.139Z,970.83
2019-03-01T03:45:02.179Z,970.79
2019-03-01T03:46:02.222Z,970.82
2019-03-01T03:47:02.267Z,970.83
2019-03-01T03:48:02.307Z,970.79
2019-03-01T03:49:02.373Z,970.83
2019-03-01T03:50:02.423Z,970.85
2019-03-01T03:51:02.444Z,970.80
2019-03-01T03:52:02.490Z,970.82
2019-03-01T03:53:02.548Z,970.78
2019-03-01T03:54:02.609Z,970.76
2019-03-01T03:55:02.647Z,970.77
2019-03-01T03:56:02.675Z,970.77
2019-03-01T03:57:02.730Z,970.77
2019-03-01T03:58:02.778Z,970.77
2019-03-01T03:59:02.815Z,970.77
2019-03-01T04:00:02.905Z,970.74
2019-03-01T04:01:02.908Z,970.71
2019-03-01T04:02:02.958Z,970.73
2019-03-01T04:03:03.009Z,970.71
2019-03-01T04:04:03.053Z,970.74
2019-03-01T04:05:03.113Z,970.70
2019-03-01T04:06:03.143Z,970.67
2019-03-01T04:07:03.182Z,970.61
2019-03-01T04:08:03.242Z,970.58
2019-03-01T04:09:03.276Z,970.59
2019-03-01T04:10:03.347Z,970.53
2019-03-01T04:11:03.378Z,970.51
2019-03-01T04:12:03.420Z,970.52
2019-03-01T04:13:03.471Z,970.54
2019-03-01T04:14:03.652Z,970.51
2019-03-01T04:15:03.583Z,970.48
2019-03-01T04:16:03.600Z,970.47
2019-03-01T04:17:03.661Z,970.52
2019-03-01T04:18:03.705Z,970.43
2019-03-01T04:19:03.741Z,970.47
2019-03-01T04:20:03.811Z,970.45
2019-03-01T04:21:03.926Z,970.46
2019-03-01T04:22:03.875Z,970.46
2019-03-01T04:23:03.928Z,970.44
2019-03-01T04:24:03.966Z,970.42
2019-03-01T04:25:04.046Z,970.45
2019-03-01T04:26:04.063Z,970.42
2019-03-01T04:27:04.120Z,970.39
2019-03-01T04:28:04.246Z,970.42
2019-03-01T04:29:04.209Z,970.39
2019-03-01T04:30:04.273Z,970.39
2019-03-01T04:31:04.316Z,970.35
2019-03-01T04:32:04.379Z,970.32
2019-03-01T04:33:04.384Z,970.27
2019-03-01T04:34:05.982Z,970.26
2019-03-01T04:35:04.484Z,970.34
2019-03-01T04:36:04.551Z,970.30
2019-03-01T04:37:04.570Z,970.30
2019-03-01T04:38:04.614Z,970.29
2019-03-01T04:39:04.659Z,970.24
2019-03-01T04:40:06.687Z,970.22
2019-03-01T04:41:04.776Z,970.26
2019-03-01T04:42:04.798Z,970.24
2019-03-01T04:43:04.847Z,970.26
2019-03-01T04:44:04.909Z,970.31
2019-03-01T04:45:04.939Z,970.21
2019-03-01T04:46:05.010Z,970.22
2019-03-01T04:47:05.040Z,970.20
2019-03-01T04:48:05.080Z,970.22
2019-03-01T04:49:05.124Z,970.20
2019-03-01T04:50:05.174Z,970.19
2019-03-01T04:51:05.247Z,970.20
2019-03-01T04:52:05.259Z,970.18
2019-03-01T04:53:05.322Z,970.24
2019-03-01T04:54:05.356Z,970.13
2019-03-01T04:55:05.399Z,970.19
2019-03-01T04:56:05.470Z,970.21
2019-03-01T04:57:05.492Z,970.20
2019-03-01T04:58:05.547Z,970.17
2019-03-01T04:59:05.583Z,970.21
2019-03-01T05:00:05.630Z,970.20
2019-03-01T05:01:05.700Z,970.17
2019-03-01T05:02:05.742Z,970.16
2019-03-01T05:03:05.768Z,970.15
2019-03-01T05:04:05.813Z,970.13
2019-03-01T05:05:05.862Z,970.10
2019-03-01T05:06:05.905Z,970.16
2019-03-01T05:07:05.972Z,970.08
2019-03-01T05:08:05.996Z,969.94
2019-03-01T05:09:06.045Z,970.07
2019-03-01T05:10:06.095Z,970.09
2019-03-01T05:11:06.137Z,970.07
2019-03-01T05:12:06.574Z,970.08
2019-03-01T05:13:06.242Z,970.08
2019-03-01T05:14:06.286Z,970.05
2019-03-01T05:15:06.321Z,970.10
2019-03-01T05:16:06.498Z,970.10
2019-03-01T05:17:06.412Z,970.00
2019-03-01T05:18:06.500Z,969.99
2019-03-01T05:19:06.507Z,969.99
2019-03-01T05:20:06.553Z,970.04
2019-03-01T05:21:06.601Z,969.96
2019-03-01T05:22:06.648Z,970.03
2019-03-01T05:23:07.048Z,970.05
2019-03-01T05:24:06.737Z,969.95
2019-03-01T05:25:06.798Z,969.93
2019-03-01T05:26:06.847Z,969.92
2019-03-01T05:27:06.872Z,969.93
2019-03-01T05:28:06.938Z,969.90
2019-03-01T05:29:06.965Z,969.89
2019-03-01T05:30:07.026Z,969.85
2019-03-01T05:31:07.057Z,969.87
2019-03-01T05:32:07.106Z,969.78
2019-03-01T05:33:07.553Z,969.78
2019-03-01T05:34:07.197Z,969.75
2019-03-01T05:35:07.250Z,969.80
2019-03-01T05:36:07.286Z,969.81
2019-03-01T05:37:07.341Z,969.71
2019-03-01T05:38:07.417Z,969.72
2019-03-01T05:39:07.549Z,969.67
2019-03-01T05:40:07.479Z,969.69
2019-03-01T05:41:07.518Z,969.67
2019-03-01T05:42:07.564Z,969.67
2019-03-01T05:43:07.633Z,969.72
2019-03-01T05:44:07.653Z,969.70
2019-03-01T05:45:07.701Z,969.69
2019-03-01T05:46:07.863Z,969.65
2019-03-01T05:47:07.794Z,969.61
2019-03-01T05:48:07.865Z,969.62
2019-03-01T05:49:07.895Z,969.62
2019-03-01T05:50:07.931Z,969.61
2019-03-01T05:51:07.975Z,969.63
2019-03-01T05:52:08.027Z,969.64
2019-03-01T05:53:08.199Z,969.60
2019-03-01T05:54:08.154Z,969.57
2019-03-01T05:55:08.165Z,969.55
2019-03-01T05:56:08.203Z,969.53
2019-03-01T05:57:08.260Z,969.59
2019-03-01T05:58:16.291Z,969.60
2019-03-01T05:59:08.361Z,969.59
2019-03-01T06:00:08.392Z,969.58
2019-03-01T06:01:08.431Z,969.57
2019-03-01T06:02:08.494Z,969.51
2019-03-01T06:03:08.525Z,969.55
2019-03-01T06:04:08.590Z,969.51
2019-03-01T06:05:08.617Z,969.49
2019-03-01T06:06:08.677Z,969.48
2019-03-01T06:07:08.714Z,969.43
2019-03-01T06:08:08.755Z,969.45
2019-03-01T06:09:08.847Z,969.44
2019-03-01T06:10:08.846Z,969.40
2019-03-01T06:11:08.894Z,969.41
2019-03-01T06:12:08.939Z,969.37
2019-03-01T06:13:08.982Z,969.34
2019-03-01T06:14:09.067Z,969.30
2019-03-01T06:15:09.106Z,969.26
2019-03-01T06:16:09.124Z,969.32
2019-03-01T06:17:09.165Z,969.32
2019-03-01T06:18:09.220Z,969.30
2019-03-01T06:19:09.258Z,969.26
2019-03-01T06:20:09.346Z,969.22
2019-03-01T06:21:09.353Z,969.24
2019-03-01T06:22:09.400Z,969.20
2019-03-01T06:23:09.458Z,969.22
2019-03-01T06:24:09.487Z,969.18
2019-03-01T06:25:09.566Z,969.17
2019-03-01T06:26:09.582Z,969.19
2019-03-01T06:27:09.627Z,969.19
2019-03-01T06:28:09.679Z,969.15
2019-03-01T06:29:09.717Z,969.20
2019-03-01T06:30:09.801Z,969.15
2019-03-01T06:31:09.808Z,969.16
2019-03-01T06:32:09.959Z,969.14
2019-03-01T06:33:09.909Z,969.14
2019-03-01T06:34:09.950Z,969.21
2019-03-01T06:35:10.023Z,969.17
2019-03-01T06:36:10.072Z,969.19
2019-03-01T06:37:10.091Z,969.20
2019-03-01T06:38:10.149Z,969.18
2019-03-01T06:39:10.230Z,969.17
2019-03-01T06:40:10.226Z,969.19
2019-03-01T06:41:10.294Z,969.18
2019-03-01T06:42:10.333Z,969.20
2019-03-01T06:43:10.362Z,969.26
2019-03-01T06:44:10.411Z,969.21
2019-03-01T06:45:10.480Z,969.27
2019-03-01T06:46:10.519Z,969.22
2019-03-01T06:47:10.544Z,969.24
2019-03-01T06:48:10.600Z,969.23
2019-03-01T06:49:10.642Z,969.11
2019-03-01T06:50:10.692Z,969.16
2019-03-01T06:51:10.749Z,969.18
2019-03-01T06:52:10.771Z,969.20
2019-03-01T06:53:10.818Z,969.24
2019-03-01T06:54:10.879Z,969.17
2019-03-01T06:55:10.951Z,969.15
2019-03-01T06:56:10.970Z,969.21
2019-03-01T06:57:11.019Z,969.18
2019-03-01T06:58:11.058Z,969.21
2019-03-01T06:59:11.100Z,969.16
2019-03-01T07:00:11.139Z,969.23
2019-03-01T07:01:11.188Z,969.26
2019-03-01T07:02:11.251Z,969.33
2019-03-01T07:03:11.293Z,969.39
2019-03-01T07:04:11.325Z,969.29
2019-03-01T07:05:11.367Z,969.34
2019-03-01T07:06:11.423Z,969.32
2019-03-01T07:07:11.458Z,969.34
2019-03-01T07:08:11.528Z,969.34
2019-03-01T07:09:11.550Z,969.45
2019-03-01T07:10:11.600Z,969.42
2019-03-01T07:11:11.642Z,969.45
2019-03-01T07:12:11.687Z,969.43
2019-03-01T07:13:11.817Z,969.39
2019-03-01T07:14:11.779Z,969.45
2019-03-01T07:15:11.832Z,969.43
2019-03-01T07:16:11.871Z,969.40
2019-03-01T07:17:11.918Z,969.38
2019-03-01T07:18:11.980Z,969.40
2019-03-01T07:19:12.012Z,969.45
2019-03-01T07:20:12.730Z,969.48
2019-03-01T07:21:12.103Z,969.45
2019-03-01T07:22:12.150Z,969.45
2019-03-01T07:23:12.220Z,969.46
2019-03-01T07:24:12.356Z,969.47
2019-03-01T07:25:12.285Z,969.45
2019-03-01T07:26:12.343Z,969.48
2019-03-01T07:27:12.529Z,969.49
2019-03-01T07:28:12.438Z,969.50
2019-03-01T07:29:12.478Z,969.48
2019-03-01T07:30:12.515Z,969.50
2019-03-01T07:31:12.558Z,969.49
2019-03-01T07:32:12.603Z,969.53
2019-03-01T07:33:12.674Z,969.58
2019-03-01T07:34:12.719Z,969.56
2019-03-01T07:35:12.742Z,969.57
2019-03-01T07:36:12.793Z,969.62
2019-03-01T07:37:12.847Z,969.59
2019-03-01T07:38:12.922Z,969.59
2019-03-01T07:39:12.943Z,969.59
2019-03-01T07:40:12.972Z,969.55
2019-03-01T07:41:13.014Z,969.60
2019-03-01T07:42:13.069Z,969.57
2019-03-01T07:43:13.131Z,969.53
2019-03-01T07:44:13.148Z,969.57
2019-03-01T07:45:13.204Z,969.54
2019-03-01T07:46:13.240Z,969.58
2019-03-01T07:47:13.290Z,969.57
2019-03-01T07:48:13.355Z,969.55
2019-03-01T07:49:13.395Z,969.54
2019-03-01T07:50:13.421Z,969.55
2019-03-01T07:51:13.478Z,969.56
2019-03-01T07:52:13.593Z,969.58
2019-03-01T07:53:13.556Z,969.60
2019-03-01T07:54:16.891Z,969.56
2019-03-01T07:55:13.649Z,969.63
2019-03-01T07:56:13.713Z,969.63
2019-03-01T07:57:14.788Z,969.65
2019-03-01T07:58:13.796Z,969.64
2019-03-01T07:59:13.876Z,969.61
2019-03-01T08:00:14.179Z,969.64
2019-03-01T08:01:13.937Z,969.68
2019-03-01T08:02:13.973Z,969.66
2019-03-01T08:03:15.135Z,969.69
2019-03-01T08:04:14.615Z,969.66
2019-03-01T08:05:16.209Z,969.67
2019-03-01T08:06:14.330Z,969.62
2019-03-01T08:07:14.198Z,969.67
2019-03-01T08:08:14.255Z,969.67
2019-03-01T08:09:14.318Z,969.68
2019-03-01T08:10:20.697Z,969.66
2019-03-01T08:11:14.373Z,969.67
2019-03-01T08:12:14.438Z,969.70
2019-03-01T08:13:14.813Z,969.71
2019-03-01T08:14:14.532Z,969.74
2019-03-01T08:15:14.580Z,969.77
2019-03-01T08:16:16.617Z,969.77
2019-03-01T08:17:14.652Z,969.81
2019-03-01T08:18:14.703Z,969.87
2019-03-01T08:19:17.007Z,969.88
2019-03-01T08:20:14.927Z,969.90
2019-03-01T08:21:14.993Z,969.96
2019-03-01T08:22:14.893Z,969.93
2019-03-01T08:23:14.933Z,970.01
2019-03-01T08:24:14.965Z,970.05
2019-03-01T08:25:15.049Z,969.98
2019-03-01T08:26:15.058Z,970.08
2019-03-01T08:27:15.098Z,970.03
2019-03-01T08:28:18.369Z,970.13
2019-03-01T08:29:15.199Z,970.05
2019-03-01T08:30:15.265Z,970.10
2019-03-01T08:31:17.514Z,970.06
2019-03-01T08:32:15.343Z,970.11
2019-03-01T08:33:15.387Z,970.22
2019-03-01T08:34:17.736Z,970.16
2019-03-01T08:35:15.480Z,970.19
2019-03-01T08:36:15.535Z,970.19
2019-03-01T08:37:17.558Z,970.27
2019-03-01T08:38:15.601Z,970.26
2019-03-01T08:39:15.644Z,970.30
2019-03-01T08:40:15.739Z,970.30
2019-03-01T08:41:15.765Z,970.32
2019-03-01T08:42:15.819Z,970.32
2019-03-01T08:43:15.826Z,970.40
2019-03-01T08:44:15.881Z,970.41
2019-03-01T08:45:15.910Z,970.39
2019-03-01T08:46:15.986Z,970.42
2019-03-01T08:47:20.257Z,970.36
2019-03-01T08:48:16.046Z,970.36
2019-03-01T08:49:16.101Z,970.28
2019-03-01T08:50:16.154Z,970.27
2019-03-01T08:51:16.237Z,970.27
2019-03-01T08:52:16.228Z,970.24
2019-03-01T08:53:16.277Z,970.29
2019-03-01T08:54:16.318Z,970.23
2019-03-01T08:55:16.371Z,970.30
2019-03-01T08:56:16.426Z,970.33
2019-03-01T08:57:16.454Z,970.36
2019-03-01T08:58:16.578Z,970.28
2019-03-01T08:59:17.495Z,970.30
2019-03-01T09:00:16.582Z,970.24
2019-03-01T09:01:16.651Z,970.19
2019-03-01T09:02:16.726Z,970.23
2019-03-01T09:03:22.358Z,970.37
2019-03-01T09:04:17.475Z,970.33
2019-03-01T09:05:16.849Z,970.37
2019-03-01T09:06:16.926Z,970.44
2019-03-01T09:07:16.903Z,970.41
2019-03-01T09:08:16.939Z,970.42
2019-03-01T09:09:17.715Z,970.43
2019-03-01T09:10:17.028Z,970.38
2019-03-01T09:11:17.105Z,970.42
2019-03-01T09:12:17.179Z,970.39
2019-03-01T09:13:17.178Z,970.38
2019-03-01T09:14:17.216Z,970.38
2019-03-01T09:15:17.248Z,970.41
2019-03-01T09:16:17.293Z,970.36
2019-03-01T09:17:17.368Z,970.39
2019-03-01T09:18:17.390Z,970.45
2019-03-01T09:19:17.425Z,970.39
2019-03-01T09:20:17.487Z,970.40
2019-03-01T09:21:17.520Z,970.43
2019-03-01T09:22:17.610Z,970.39
2019-03-01T09:23:24.196Z,970.35
2019-03-01T09:24:17.657Z,970.33
2019-03-01T09:25:17.694Z,970.31
2019-03-01T09:26:19.936Z,970.38
2019-03-01T09:27:17.818Z,970.36
2019-03-01T09:28:17.838Z,970.39
2019-03-01T09:29:18.748Z,970.39
2019-03-01T09:30:17.914Z,970.41
2019-03-01T09:31:17.960Z,970.39
2019-03-01T09:32:18.029Z,970.41
2019-03-01T09:33:21.164Z,970.42
2019-03-01T09:34:18.097Z,970.43
2019-03-01T09:35:18.195Z,970.37
2019-03-01T09:36:21.284Z,970.47
2019-03-01T09:37:18.248Z,970.49
2019-03-01T09:38:18.296Z,970.44
2019-03-01T09:39:19.240Z,970.48
2019-03-01T09:40:18.381Z,970.48
2019-03-01T09:41:18.402Z,970.45
2019-03-01T09:42:18.577Z,970.44
2019-03-01T09:43:18.550Z,970.49
2019-03-01T09:44:18.533Z,970.43
2019-03-01T09:45:19.389Z,970.48
2019-03-01T09:46:20.789Z,970.47
2019-03-01T09:47:18.673Z,970.48
2019-03-01T09:48:18.784Z,970.45
2019-03-01T09:49:21.347Z,970.49
2019-03-01T09:50:18.803Z,970.43
2019-03-01T09:51:18.853Z,970.42
2019-03-01T09:52:20.385Z,970.40
2019-03-01T09:53:18.986Z,970.41
2019-03-01T09:54:18.981Z,970.38
2019-03-01T09:55:19.024Z,970.41
2019-03-01T09:56:19.094Z,970.39
2019-03-01T09:57:19.115Z,970.46
2019-03-01T09:58:19.194Z,970.45
2019-03-01T09:59:19.208Z,970.48
2019-03-01T10:00:19.251Z,970.45
2019-03-01T10:01:19.306Z,970.45
2019-03-01T10:02:19.342Z,970.48
2019-03-01T10:03:19.443Z,970.38
2019-03-01T10:04:19.462Z,970.34
2019-03-01T10:05:19.476Z,970.34
2019-03-01T10:06:19.523Z,970.30
2019-03-01T10:07:19.572Z,970.35
2019-03-01T10:08:19.633Z,970.32
2019-03-01T10:09:19.668Z,970.32
2019-03-01T10:10:19.697Z,970.31
2019-03-01T10:11:19.747Z,970.28
2019-03-01T10:12:19.881Z,970.31
2019-03-01T10:13:19.834Z,970.32
2019-03-01T10:14:20.480Z,970.34
2019-03-01T10:15:19.922Z,970.28
2019-03-01T10:16:19.973Z,970.30
2019-03-01T10:17:20.007Z,970.25
2019-03-01T10:18:20.057Z,970.26
2019-03-01T10:19:20.128Z,970.25
2019-03-01T10:20:20.152Z,970.27
2019-03-01T10:21:20.208Z,970.32
2019-03-01T10:22:20.229Z,970.32
2019-03-01T10:23:20.275Z,970.32
2019-03-01T10:24:20.354Z,970.31
2019-03-01T10:25:20.376Z,970.30
2019-03-01T10:26:20.420Z,970.30
2019-03-01T10:27:20.455Z,970.35
2019-03-01T10:28:20.521Z,970.32
2019-03-01T10:29:20.574Z,970.32
2019-03-01T10:30:20.617Z,970.33
2019-03-01T10:31:20.639Z,970.35
2019-03-01T10:32:20.678Z,970.38
2019-03-01T10:33:20.735Z,970.38
2019-03-01T10:34:20.778Z,970.39
2019-03-01T10:35:20.836Z,970.40
2019-03-01T10:36:20.871Z,970.45
2019-03-01T10:37:20.916Z,970.44
2019-03-01T10:38:20.956Z,970.40
2019-03-01T10:39:21.017Z,970.45
2019-03-01T10:40:21.082Z,970.41
2019-03-01T10:41:21.090Z,970.38
2019-03-01T10:42:21.157Z,970.38
2019-03-01T10:43:21.191Z,970.41
2019-03-01T10:44:21.233Z,970.39
2019-03-01T10:45:21.315Z,970.39
2019-03-01T10:46:21.318Z,970.34
2019-03-01T10:47:21.366Z,970.34
2019-03-01T10:48:21.414Z,970.29
2019-03-01T10:49:21.527Z,970.23
2019-03-01T10:50:21.540Z,970.28
2019-03-01T10:51:21.566Z,970.30
2019-03-01T10:52:21.598Z,970.32
2019-03-01T10:53:21.644Z,970.26
2019-03-01T10:54:21.696Z,970.29
2019-03-01T10:55:21.755Z,970.34
2019-03-01T10:56:21.803Z,970.30
2019-03-01T10:57:21.822Z,970.34
2019-03-01T10:58:21.943Z,970.33
2019-03-01T10:59:21.932Z,970.31
2019-03-01T11:00:22.006Z,970.33
2019-03-01T11:01:22.020Z,970.31
2019-03-01T11:02:22.056Z,970.31
2019-03-01T11:03:22.095Z,970.36
2019-03-01T11:04:22.142Z,970.38
2019-03-01T11:05:22.208Z,970.33
2019-03-01T11:06:22.258Z,970.36
2019-03-01T11:07:22.276Z,970.30
2019-03-01T11:08:22.326Z,970.30
2019-03-01T11:09:22.372Z,970.30
2019-03-01T11:10:22.419Z,970.33
2019-03-01T11:11:22.480Z,970.30
2019-03-01T11:12:22.508Z,970.26
2019-03-01T11:13:22.549Z,970.30
2019-03-01T11:14:22.726Z,970.29
2019-03-01T11:15:22.635Z,970.27
2019-03-01T11:16:22.729Z,970.26
2019-03-01T11:17:22.729Z,970.24
2019-03-01T11:18:22.777Z,970.24
2019-03-01T11:19:22.822Z,970.17
2019-03-01T11:20:22.863Z,970.18
2019-03-01T11:21:23.066Z,970.12
2019-03-01T11:22:22.956Z,970.14
2019-03-01T11:23:23.010Z,970.15
2019-03-01T11:24:23.045Z,970.11
2019-03-01T11:25:23.097Z,970.11
2019-03-01T11:26:23.160Z,970.07
2019-03-01T11:27:23.216Z,970.07
2019-03-01T11:28:23.352Z,970.06
2019-03-01T11:29:23.285Z,970.10
2019-03-01T11:30:23.318Z,970.08
2019-03-01T11:31:23.363Z,970.06
2019-03-01T11:32:23.424Z,970.06
2019-03-01T11:33:23.467Z,970.05
2019-03-01T11:34:23.499Z,970.09
2019-03-01T11:35:23.575Z,970.07
2019-03-01T11:36:23.580Z,970.07
2019-03-01T11:37:23.664Z,970.10
2019-03-01T11:38:23.683Z,970.04
2019-03-01T11:39:23.730Z,970.07
2019-03-01T11:40:23.763Z,970.09
2019-03-01T11:41:23.809Z,970.02
2019-03-01T11:42:23.975Z,970.07
2019-03-01T11:43:23.896Z,970.04
2019-03-01T11:44:23.948Z,970.06
2019-03-01T11:45:24.002Z,970.08
2019-03-01T11:46:24.043Z,970.05
2019-03-01T11:47:24.097Z,970.09
2019-03-01T11:48:24.156Z,970.08
2019-03-01T11:49:24.178Z,970.10
2019-03-01T11:50:24.214Z,970.10
2019-03-01T11:51:24.260Z,970.07
2019-03-01T11:52:24.313Z,970.06
2019-03-01T11:53:24.375Z,970.07
2019-03-01T11:54:24.396Z,970.05
2019-03-01T11:55:24.447Z,970.05
2019-03-01T11:56:24.528Z,970.03
2019-03-01T11:57:24.531Z,970.03
2019-03-01T11:58:24.599Z,969.98
2019-03-01T11:59:24.624Z,970.00
2019-03-01T12:00:24.675Z,969.96
2019-03-01T12:01:24.718Z,969.97
2019-03-01T12:02:24.760Z,969.96
2019-03-01T12:03:24.853Z,969.96
2019-03-01T12:04:24.868Z,969.91
2019-03-01T12:05:24.899Z,969.89
2019-03-01T12:06:24.937Z,969.89
2019-03-01T12:07:24.982Z,969.86
2019-03-01T12:08:25.055Z,969.90
2019-03-01T12:09:25.085Z,969.89
2019-03-01T12:10:25.120Z,969.89
2019-03-01T12:11:25.210Z,969.87
2019-03-01T12:12:25.241Z,969.88
2019-03-01T12:13:25.283Z,969.87
2019-03-01T12:14:25.304Z,969.90
2019-03-01T12:15:25.354Z,969.87
2019-03-01T12:16:25.395Z,969.90
2019-03-01T12:17:25.442Z,969.89
2019-03-01T12:18:25.509Z,969.91
2019-03-01T12:19:25.532Z,969.86
2019-03-01T12:20:25.567Z,969.86
2019-03-01T12:21:25.625Z,969.88
2019-03-01T12:22:25.659Z,969.87
2019-03-01T12:23:25.739Z,969.87
2019-03-01T12:24:25.758Z,969.85
2019-03-01T12:25:25.810Z,969.82
2019-03-01T12:26:25.874Z,969.82
2019-03-01T12:27:25.891Z,969.86
2019-03-01T12:28:25.949Z,969.83
2019-03-01T12:29:25.978Z,969.85